Liverpool, United Kingdom

8:18 AM BST on May 24, 2015 (GMT +0100)
Liverpool | | Change Station
CLOSE
Current Station
Airport
Location: Liverpool,
Elevation: 85 ft
Nearby Weather Stations

Elev 85 ft 53.33 °N, 2.85 °W | Updated 28 minutes ago

Light Rain
Light Rain Drizzle
52 °F
Feels Like 52 °F
N
5
Wind Variable Wind from South

Today
High -- | Low -- °F
--% Chance of Precip.
Yesterday
High -- | Low -- °F
Precip. -- in
4:59 AM 9:18 PM
Waxing Crescent, 37% visible
Pressure 30.06 in
Visibility 2.2 miles
Clouds Scattered Clouds 600 ft
Mostly Cloudy 900 ft
Dew Point 52 °F
Humidity 100%
Rainfall 0.00 in
Snow Depth Not available.
UV 1 out of 12
Pollen Not available.
Air Quality Not available.
Flu Activity Not available.
METAR EGGP 240650Z 19004KT 3500 -RADZ SCT006 BKN009 11/11 Q1018

More Conditions Fewer Conditions

Pressure 30.06 in
Visibility 2.2 miles
Clouds Scattered Clouds 600 ft
Mostly Cloudy 900 ft
Dew Point 52 °F
Humidity 100%
Rainfall 0.00 in
Snow Depth Not available.
UV 1 out of 12
Pollen Not available.
Air Quality Not available.
Flu Activity Not available.
METAR EGGP 240650Z 19004KT 3500 -RADZ SCT006 BKN009 11/11 Q1018

More Conditions Fewer Conditions

10-Day Weather Forecast

Almanac

Astronomy

May. 24, 2015 Rise Set
Actual Time
Civil Twilight
Nautical Twilight
Astronomical Twilight
Moon
Length of Visible Light
Length of Day
Tomorrow will be .
, % of the Moon is Illuminated

Today's Extremes

Country Highs Country Lows

Community

WunderPhotos

Upload Photos

1,823,693 photos uploaded!

WunderBlogs® & News

Nearby

Air Quality

  Air Quality AQ Index Pollutant
Not available.

Snow Depth

Station Depth Elevation

Earthquake Activity

City Distance Mag. Time & Date
Minimum magnitude displayed is 2.5.

Coastal Water Temperatures

Place Temperature

Stations

Nearby Weather Stations

Station Location Temp. Windchill Dew Point Humidity Wind Precip. Elev Updated Type